createdAt,value
2023-04-10T00:01:08.481Z,16.03
2023-04-10T00:03:58.181Z,16.20
2023-04-10T00:06:48.996Z,16.30
2023-04-10T00:09:38.468Z,16.60
2023-04-10T00:12:27.813Z,16.50
2023-04-10T00:15:18.527Z,17.87
2023-04-10T00:18:07.850Z,16.97
2023-04-10T00:20:57.658Z,17.63
2023-04-10T00:23:47.027Z,17.37
2023-04-10T00:26:37.506Z,16.17
2023-04-10T00:29:26.961Z,18.40
2023-04-10T00:32:17.685Z,17.37
2023-04-10T00:35:09.225Z,16.93
2023-04-10T00:37:58.675Z,18.30
2023-04-10T00:40:48.012Z,16.90
2023-04-10T00:43:37.390Z,19.03
2023-04-10T00:46:27.512Z,17.43
2023-04-10T00:49:18.557Z,16.67
2023-04-10T00:52:08.275Z,17.43
2023-04-10T00:54:57.670Z,15.50
2023-04-10T00:57:47.844Z,16.63
2023-04-10T01:00:37.306Z,16.50
2023-04-10T01:03:27.649Z,16.17
2023-04-10T01:06:32.392Z,16.23
2023-04-10T01:09:35.429Z,16.10
2023-04-10T01:12:42.844Z,15.97
2023-04-10T01:15:39.138Z,16.07
2023-04-10T01:18:37.534Z,16.13
2023-04-10T01:21:29.464Z,15.77
2023-04-10T01:24:47.963Z,15.97
2023-04-10T01:27:47.831Z,15.33
2023-04-10T01:30:39.158Z,16.27
2023-04-10T01:33:33.940Z,15.00
2023-04-10T01:36:29.550Z,15.47
2023-04-10T01:39:21.857Z,15.90
2023-04-10T01:42:15.693Z,15.10
2023-04-10T01:45:09.642Z,16.03
2023-04-10T01:48:00.990Z,15.60
2023-04-10T01:50:51.792Z,15.93
2023-04-10T01:53:42.883Z,15.30
2023-04-10T01:56:34.119Z,15.70
2023-04-10T01:59:24.300Z,14.60
2023-04-10T02:02:13.793Z,14.77
2023-04-10T02:05:04.671Z,15.73
2023-04-10T02:08:01.900Z,15.47
2023-04-10T02:10:58.950Z,15.47
2023-04-10T02:13:50.717Z,15.47
2023-04-10T02:16:40.821Z,15.27
2023-04-10T02:19:32.449Z,15.07
2023-04-10T02:22:25.566Z,14.23
2023-04-10T02:25:15.732Z,14.77
2023-04-10T02:28:09.300Z,14.40
2023-04-10T02:30:58.725Z,15.30
2023-04-10T02:33:49.527Z,15.00
2023-04-10T02:36:40.263Z,14.63
2023-04-10T02:39:32.214Z,14.57
2023-04-10T02:42:21.983Z,13.90
2023-04-10T02:45:13.230Z,13.70
2023-04-10T02:48:07.404Z,14.23
2023-04-10T02:51:00.496Z,14.10
2023-04-10T02:53:53.242Z,15.20
2023-04-10T02:56:52.871Z,13.70
2023-04-10T02:59:42.131Z,14.60
2023-04-10T03:02:32.144Z,14.20
2023-04-10T03:05:27.139Z,14.43
2023-04-10T03:08:17.345Z,14.37
2023-04-10T03:11:09.056Z,15.40
2023-04-10T03:13:59.799Z,15.40
2023-04-10T03:16:50.426Z,14.33
2023-04-10T03:19:40.151Z,14.20
2023-04-10T03:22:31.923Z,14.73
2023-04-10T03:25:21.831Z,14.67
2023-04-10T03:28:11.365Z,14.07
2023-04-10T03:31:03.788Z,14.20
2023-04-10T03:33:57.293Z,13.90
2023-04-10T03:36:47.956Z,13.97
2023-04-10T03:39:38.152Z,13.43
2023-04-10T03:42:27.513Z,14.20
2023-04-10T03:45:18.296Z,14.90
2023-04-10T03:48:09.508Z,14.33
2023-04-10T03:51:06.174Z,13.90
2023-04-10T03:53:55.989Z,14.50
2023-04-10T03:56:45.714Z,14.90
2023-04-10T03:59:38.509Z,14.63
2023-04-10T04:02:33.608Z,15.00
2023-04-10T04:05:26.539Z,14.10
2023-04-10T04:08:44.898Z,15.27
2023-04-10T04:11:41.849Z,21.03
2023-04-10T04:14:49.455Z,15.47
2023-04-10T04:18:14.242Z,15.03
2023-04-10T04:21:10.475Z,14.80
2023-04-10T04:24:22.779Z,14.77
2023-04-10T04:27:21.757Z,17.50
2023-04-10T04:30:43.570Z,14.70
2023-04-10T04:33:47.919Z,14.67
2023-04-10T04:37:07.844Z,14.77
2023-04-10T04:40:03.558Z,14.03
2023-04-10T04:43:13.170Z,15.30
2023-04-10T04:46:43.210Z,15.47
2023-04-10T04:49:54.077Z,15.17
2023-04-10T04:53:20.040Z,14.60
2023-04-10T04:56:29.632Z,14.50
2023-04-10T04:59:43.545Z,14.97
2023-04-10T05:02:47.013Z,14.90
2023-04-10T05:05:51.877Z,14.83
2023-04-10T05:08:52.981Z,14.90
2023-04-10T05:11:54.435Z,16.00
2023-04-10T05:15:04.456Z,14.87
2023-04-10T05:18:14.233Z,15.07
2023-04-10T05:21:18.039Z,14.80
2023-04-10T05:24:28.670Z,15.10
2023-04-10T05:27:53.060Z,14.97
2023-04-10T05:31:08.549Z,14.13
2023-04-10T05:34:00.705Z,19.03
2023-04-10T05:37:13.662Z,14.63
2023-04-10T05:40:24.576Z,14.73
2023-04-10T05:43:34.117Z,15.00
2023-04-10T05:46:31.298Z,14.70
2023-04-10T05:49:39.187Z,16.10
2023-04-10T05:52:56.066Z,14.23
2023-04-10T05:56:05.795Z,14.80
2023-04-10T05:59:27.335Z,15.40
2023-04-10T06:02:24.708Z,15.83
2023-04-10T06:05:14.485Z,15.80
2023-04-10T06:08:06.457Z,17.07
2023-04-10T06:10:56.293Z,15.50
2023-04-10T06:13:46.987Z,16.07
2023-04-10T06:16:36.583Z,15.47
2023-04-10T06:19:26.446Z,15.33
2023-04-10T06:22:15.811Z,15.10
2023-04-10T06:25:06.512Z,15.90
2023-04-10T06:27:56.186Z,17.07
2023-04-10T06:30:47.004Z,15.20
2023-04-10T06:33:37.066Z,15.37
2023-04-10T06:36:28.993Z,14.83
2023-04-10T06:39:25.413Z,15.33
2023-04-10T06:42:15.669Z,15.00
2023-04-10T06:45:17.084Z,14.10
2023-04-10T06:48:08.201Z,14.70
2023-04-10T06:50:57.492Z,15.30
2023-04-10T06:53:46.827Z,14.67
2023-04-10T06:56:36.248Z,15.50
2023-04-10T06:59:26.098Z,15.40
2023-04-10T07:02:15.495Z,14.93
2023-04-10T07:05:07.269Z,14.40
2023-04-10T07:07:56.575Z,14.27
2023-04-10T07:10:46.021Z,13.93
2023-04-10T07:13:38.804Z,13.80
2023-04-10T07:16:29.451Z,14.10
2023-04-10T07:19:18.845Z,14.47
2023-04-10T07:22:09.564Z,13.87
2023-04-10T07:24:59.038Z,14.10
2023-04-10T07:27:48.406Z,13.73
2023-04-10T07:30:37.710Z,14.90
2023-04-10T07:33:27.184Z,14.27
2023-04-10T07:36:16.775Z,15.10
2023-04-10T07:39:07.531Z,14.87
2023-04-10T07:41:56.924Z,14.23
2023-04-10T07:44:46.248Z,14.20
2023-04-10T07:47:35.634Z,14.13
2023-04-10T07:50:25.060Z,22.47
2023-04-10T07:53:14.679Z,19.47
2023-04-10T07:56:06.611Z,16.67
2023-04-10T07:58:56.071Z,15.30
2023-04-10T08:01:45.520Z,15.10
2023-04-10T08:04:35.546Z,14.80
2023-04-10T08:07:25.236Z,14.57
2023-04-10T08:10:14.695Z,14.70
2023-04-10T08:13:05.524Z,13.80
2023-04-10T08:15:54.818Z,15.40
2023-04-10T08:18:44.194Z,14.80
2023-04-10T08:21:33.585Z,17.03
2023-04-10T08:24:23.025Z,13.43
2023-04-10T08:27:12.366Z,13.47
2023-04-10T08:30:03.076Z,13.53
2023-04-10T08:32:52.534Z,13.87
2023-04-10T08:35:41.941Z,13.40
2023-04-10T08:38:31.263Z,12.97
2023-04-10T08:41:21.352Z,13.90
2023-04-10T08:44:10.961Z,13.20
2023-04-10T08:47:02.886Z,14.17
2023-04-10T08:49:57.344Z,13.53
2023-04-10T08:52:48.271Z,14.37
2023-04-10T08:55:38.069Z,13.30
2023-04-10T08:58:27.660Z,13.83
2023-04-10T09:01:17.526Z,13.50
2023-04-10T09:04:08.522Z,13.03
2023-04-10T09:06:57.885Z,13.03
2023-04-10T09:09:47.301Z,13.87
2023-04-10T09:12:47.384Z,13.40
2023-04-10T09:15:58.448Z,14.00
2023-04-10T09:18:51.242Z,14.43
2023-04-10T09:21:52.296Z,13.90
2023-04-10T09:24:44.864Z,14.03
2023-04-10T09:27:37.428Z,14.17
2023-04-10T09:30:36.510Z,14.07
2023-04-10T09:33:28.595Z,13.80
2023-04-10T09:36:18.681Z,14.27
2023-04-10T09:39:11.265Z,13.93
2023-04-10T09:42:00.663Z,15.80
2023-04-10T09:44:56.902Z,13.80
2023-04-10T09:48:04.368Z,13.37
2023-04-10T09:50:54.334Z,12.60
2023-04-10T09:53:51.205Z,13.00
2023-04-10T09:56:42.886Z,12.70
2023-04-10T09:59:32.564Z,13.00
2023-04-10T10:02:23.745Z,12.23
2023-04-10T10:05:13.450Z,12.93
2023-04-10T10:08:02.922Z,12.90
2023-04-10T10:10:55.955Z,11.97
2023-04-10T10:13:52.216Z,12.63
2023-04-10T10:16:47.616Z,13.00
2023-04-10T10:19:48.527Z,12.10
2023-04-10T10:22:39.189Z,11.83
2023-04-10T10:25:29.466Z,11.97
2023-04-10T10:28:21.601Z,12.07
2023-04-10T10:31:13.170Z,12.30
2023-04-10T10:34:04.837Z,12.87
2023-04-10T10:36:54.201Z,12.70
2023-04-10T10:39:55.436Z,12.60
2023-04-10T10:42:54.933Z,12.53
2023-04-10T10:45:53.656Z,12.67
2023-04-10T10:48:57.997Z,11.80
2023-04-10T10:51:50.300Z,11.93
2023-04-10T10:54:44.682Z,13.23
2023-04-10T10:57:49.766Z,12.10
2023-04-10T11:01:10.706Z,13.40
2023-04-10T11:04:02.426Z,13.33
2023-04-10T11:06:53.276Z,12.90
2023-04-10T11:09:51.538Z,13.57
2023-04-10T11:13:18.185Z,12.80
2023-04-10T11:16:11.358Z,13.07
2023-04-10T11:19:14.929Z,12.30
2023-04-10T11:22:08.262Z,14.83
2023-04-10T11:25:02.446Z,15.40
2023-04-10T11:27:53.004Z,14.60
2023-04-10T11:30:42.495Z,15.70
2023-04-10T11:33:31.908Z,15.63
2023-04-10T11:36:22.562Z,16.00
2023-04-10T11:39:14.142Z,16.30
2023-04-10T11:42:04.940Z,16.27
2023-04-10T11:44:54.337Z,15.90
2023-04-10T11:47:43.661Z,15.63
2023-04-10T11:50:36.071Z,15.07
2023-04-10T11:53:27.188Z,14.20
2023-04-10T11:56:21.851Z,14.33
2023-04-10T11:59:13.509Z,14.93
2023-04-10T12:02:09.286Z,14.23
2023-04-10T12:05:00.101Z,14.47
2023-04-10T12:07:50.919Z,14.67
2023-04-10T12:10:49.603Z,14.53
2023-04-10T12:13:39.347Z,14.60
2023-04-10T12:16:28.896Z,13.80
2023-04-10T12:19:18.993Z,13.40
2023-04-10T12:22:08.557Z,13.63
2023-04-10T12:24:58.038Z,13.47
2023-04-10T12:27:52.645Z,13.43
2023-04-10T12:30:49.173Z,13.60
2023-04-10T12:33:38.579Z,13.93
2023-04-10T12:36:30.688Z,14.03
2023-04-10T12:39:25.031Z,13.70
2023-04-10T12:42:16.088Z,14.20
2023-04-10T12:45:09.962Z,13.90
2023-04-10T12:47:59.364Z,13.73
2023-04-10T12:50:49.198Z,13.70
2023-04-10T12:53:45.372Z,14.00
2023-04-10T12:56:43.199Z,14.07
2023-04-10T12:59:32.892Z,13.40
2023-04-10T13:02:24.978Z,13.47
2023-04-10T13:05:14.836Z,13.37
2023-04-10T13:08:04.468Z,14.13
2023-04-10T13:10:55.041Z,14.03
2023-04-10T13:13:44.384Z,14.20
2023-04-10T13:16:33.881Z,14.00
2023-04-10T13:19:24.566Z,14.03
2023-04-10T13:22:13.944Z,14.03
2023-04-10T13:25:03.749Z,14.63
2023-04-10T13:27:53.193Z,13.77
2023-04-10T13:30:43.934Z,14.53
2023-04-10T13:33:33.257Z,14.67
2023-04-10T13:36:24.089Z,14.67
2023-04-10T13:39:13.483Z,14.40
2023-04-10T13:42:03.133Z,14.20
2023-04-10T13:44:52.561Z,14.23
2023-04-10T13:47:42.195Z,14.70
2023-04-10T13:50:31.527Z,13.60
2023-04-10T13:53:22.222Z,15.80
2023-04-10T13:56:11.628Z,15.00
2023-04-10T13:59:00.946Z,14.63
2023-04-10T14:01:52.000Z,15.10
2023-04-10T14:04:42.660Z,14.30
2023-04-10T14:07:33.204Z,14.77
2023-04-10T14:10:24.159Z,13.67
2023-04-10T14:13:13.467Z,14.93
2023-04-10T14:16:04.189Z,13.70
2023-04-10T14:18:53.956Z,13.70
2023-04-10T14:21:44.463Z,14.23
2023-04-10T14:24:33.839Z,13.40
2023-04-10T14:27:24.619Z,13.30
2023-04-10T14:30:14.749Z,13.40
2023-04-10T14:33:04.172Z,13.97
2023-04-10T14:35:54.545Z,14.40
2023-04-10T14:38:43.931Z,13.57
2023-04-10T14:41:33.208Z,13.20
2023-04-10T14:44:24.250Z,13.97
2023-04-10T14:47:13.784Z,13.60
2023-04-10T14:50:03.233Z,13.97
2023-04-10T14:52:53.692Z,13.33
2023-04-10T14:55:43.059Z,13.43
2023-04-10T14:58:32.342Z,13.87
2023-04-10T15:01:23.052Z,13.87
2023-04-10T15:04:12.886Z,14.67
2023-04-10T15:07:02.363Z,13.70
2023-04-10T15:09:51.893Z,13.47
2023-04-10T15:12:42.492Z,13.67
2023-04-10T15:15:31.816Z,13.70
2023-04-10T15:18:22.520Z,13.23
2023-04-10T15:21:11.912Z,13.73
2023-04-10T15:24:01.743Z,13.57
2023-04-10T15:26:51.215Z,13.53
2023-04-10T15:29:44.021Z,13.47
2023-04-10T15:32:33.640Z,13.60
2023-04-10T15:35:26.456Z,13.60
2023-04-10T15:38:15.797Z,13.33
2023-04-10T15:41:11.274Z,13.50
2023-04-10T15:44:00.742Z,14.37
2023-04-10T15:46:50.270Z,13.20
2023-04-10T15:49:39.618Z,13.33
2023-04-10T15:52:32.687Z,13.67
2023-04-10T15:55:22.055Z,13.00
2023-04-10T15:58:11.357Z,13.07
2023-04-10T16:01:01.132Z,12.20
2023-04-10T16:03:50.640Z,12.70
2023-04-10T16:06:39.994Z,12.50
2023-04-10T16:09:31.677Z,13.10
2023-04-10T16:12:21.077Z,12.77
2023-04-10T16:15:11.169Z,13.20
2023-04-10T16:18:01.179Z,12.90
2023-04-10T16:20:50.507Z,12.50
2023-04-10T16:23:40.103Z,12.17
2023-04-10T16:26:30.870Z,12.27
2023-04-10T16:29:20.246Z,12.43
2023-04-10T16:32:09.631Z,12.60
2023-04-10T16:34:59.184Z,12.80
2023-04-10T16:37:48.601Z,13.00
2023-04-10T16:40:38.193Z,12.43
2023-04-10T16:43:30.189Z,12.00
2023-04-10T16:46:19.542Z,12.67
2023-04-10T16:49:08.953Z,12.93
2023-04-10T16:51:58.380Z,12.30
2023-04-10T16:54:47.774Z,12.33
2023-04-10T16:57:37.180Z,12.80
2023-04-10T17:00:28.286Z,13.00
2023-04-10T17:03:17.739Z,13.33
2023-04-10T17:06:07.304Z,13.27
2023-04-10T17:08:56.908Z,13.03
2023-04-10T17:11:46.598Z,12.73
2023-04-10T17:14:35.902Z,13.13
2023-04-10T17:17:26.746Z,13.03
2023-04-10T17:20:16.383Z,12.37
2023-04-10T17:23:05.786Z,13.00
2023-04-10T17:25:55.116Z,12.60
2023-04-10T17:28:46.225Z,12.23
2023-04-10T17:31:35.769Z,12.57
2023-04-10T17:34:26.710Z,12.60
2023-04-10T17:37:16.116Z,12.73
2023-04-10T17:40:06.458Z,13.33
2023-04-10T17:42:55.759Z,13.20
2023-04-10T17:45:45.138Z,13.20
2023-04-10T17:48:34.654Z,13.47
2023-04-10T17:51:25.846Z,13.20
2023-04-10T17:54:15.164Z,12.80
2023-04-10T17:57:04.893Z,13.27
2023-04-10T17:59:54.347Z,14.43
2023-04-10T18:02:43.856Z,13.63
2023-04-10T18:05:34.767Z,14.57
2023-04-10T18:08:25.554Z,14.03
2023-04-10T18:11:14.973Z,13.30
2023-04-10T18:14:04.328Z,13.07
2023-04-10T18:16:53.746Z,13.13
2023-04-10T18:19:43.048Z,12.90
2023-04-10T18:22:32.385Z,13.20
2023-04-10T18:25:23.124Z,12.93
2023-04-10T18:28:15.383Z,13.13
2023-04-10T18:31:06.495Z,13.13
2023-04-10T18:34:04.081Z,12.70
2023-04-10T18:36:56.857Z,12.90
2023-04-10T18:39:46.233Z,12.93
2023-04-10T18:42:37.012Z,13.43
2023-04-10T18:45:26.422Z,13.30
2023-04-10T18:48:15.734Z,13.10
2023-04-10T18:51:05.247Z,13.50
2023-04-10T18:53:54.776Z,14.90
2023-04-10T18:56:44.365Z,15.00
2023-04-10T18:59:35.095Z,14.60
2023-04-10T19:02:24.882Z,14.03
2023-04-10T19:05:16.619Z,14.20
2023-04-10T19:08:07.067Z,14.60
2023-04-10T19:10:56.385Z,13.73
2023-04-10T19:13:45.845Z,14.70
2023-04-10T19:16:36.855Z,14.73
2023-04-10T19:19:26.215Z,16.90
2023-04-10T19:22:16.534Z,15.30
2023-04-10T19:25:06.729Z,15.73
2023-04-10T19:27:56.232Z,16.37
2023-04-10T19:30:45.536Z,16.17
2023-04-10T19:33:36.283Z,16.30
2023-04-10T19:36:27.080Z,15.57
2023-04-10T19:39:16.489Z,15.77
2023-04-10T19:42:05.837Z,17.50
2023-04-10T19:44:55.219Z,15.83
2023-04-10T19:47:44.551Z,15.07
2023-04-10T19:50:35.296Z,14.93
2023-04-10T19:53:24.571Z,14.87
2023-04-10T19:56:13.978Z,14.73
2023-04-10T19:59:03.280Z,14.20
2023-04-10T20:01:52.650Z,13.87
2023-04-10T20:04:42.085Z,13.17
2023-04-10T20:07:32.885Z,13.90
2023-04-10T20:10:22.710Z,12.60
2023-04-10T20:13:12.094Z,12.73
2023-04-10T20:16:01.543Z,12.87
2023-04-10T20:18:52.189Z,12.80
2023-04-10T20:21:41.617Z,12.47
2023-04-10T20:24:32.311Z,14.70
2023-04-10T20:27:21.693Z,14.37
2023-04-10T20:30:11.825Z,13.57
2023-04-10T20:33:01.188Z,13.47
2023-04-10T20:35:50.643Z,13.17
2023-04-10T20:38:40.042Z,12.83
2023-04-10T20:41:30.726Z,12.73
2023-04-10T20:44:20.052Z,12.90
2023-04-10T20:47:09.732Z,13.60
2023-04-10T20:49:59.104Z,13.40
2023-04-10T20:52:48.502Z,12.70
2023-04-10T20:55:39.872Z,12.23
2023-04-10T20:58:30.656Z,13.10
2023-04-10T21:01:20.112Z,13.17
2023-04-10T21:04:09.503Z,12.80
2023-04-10T21:06:58.937Z,12.70
2023-04-10T21:09:48.253Z,13.83
2023-04-10T21:12:37.565Z,12.50
2023-04-10T21:15:28.347Z,12.83
2023-04-10T21:18:17.694Z,12.93
2023-04-10T21:21:07.615Z,13.00
2023-04-10T21:23:57.012Z,12.87
2023-04-10T21:26:46.347Z,14.60
2023-04-10T21:29:35.731Z,21.55
2023-04-10T21:32:26.496Z,18.20
2023-04-10T21:35:15.923Z,16.17
2023-04-10T21:38:05.235Z,14.50
2023-04-10T21:40:55.423Z,13.70
2023-04-10T21:43:44.779Z,13.37
2023-04-10T21:46:34.446Z,13.00
2023-04-10T21:49:25.202Z,12.50
2023-04-10T21:52:14.584Z,12.63
2023-04-10T21:55:06.160Z,13.00
2023-04-10T21:57:55.758Z,12.70
2023-04-10T22:00:47.241Z,12.87
2023-04-10T22:03:37.312Z,12.33
2023-04-10T22:06:28.230Z,13.07
2023-04-10T22:09:17.723Z,13.00
2023-04-10T22:12:07.577Z,12.90
2023-04-10T22:14:56.872Z,13.00
2023-04-10T22:17:46.390Z,12.57
2023-04-10T22:20:35.806Z,12.60
2023-04-10T22:23:26.737Z,12.50
2023-04-10T22:26:16.088Z,12.40
2023-04-10T22:29:05.783Z,12.27
2023-04-10T22:31:56.014Z,12.17
2023-04-10T22:34:45.460Z,11.77
2023-04-10T22:37:34.974Z,12.73
2023-04-10T22:40:25.946Z,12.17
2023-04-10T22:43:15.281Z,12.60
2023-04-10T22:46:04.926Z,12.77
2023-04-10T22:48:55.659Z,12.43
2023-04-10T22:51:46.849Z,12.20
2023-04-10T22:54:36.294Z,12.37
2023-04-10T22:57:26.992Z,12.43
2023-04-10T23:00:17.033Z,13.40
2023-04-10T23:03:06.525Z,12.80
2023-04-10T23:05:55.934Z,12.00
2023-04-10T23:08:45.303Z,11.87
2023-04-10T23:11:36.623Z,11.70
2023-04-10T23:14:27.378Z,12.37
2023-04-10T23:17:16.742Z,13.03
2023-04-10T23:20:07.544Z,12.63
2023-04-10T23:22:57.286Z,12.43
2023-04-10T23:25:47.485Z,12.60
2023-04-10T23:28:36.909Z,12.50
2023-04-10T23:31:27.990Z,12.20
2023-04-10T23:34:18.842Z,12.60
2023-04-10T23:37:08.226Z,12.60
2023-04-10T23:39:57.599Z,12.83
2023-04-10T23:42:47.194Z,12.60
2023-04-10T23:45:36.790Z,12.60
2023-04-10T23:48:27.694Z,12.93
2023-04-10T23:51:17.031Z,13.57
2023-04-10T23:54:07.287Z,12.53
2023-04-10T23:56:56.578Z,13.00
2023-04-10T23:59:46.846Z,12.90
